sensor_id;sensor_type;location;lat;lon;timestamp;P1;durP1;ratioP1;P2;durP2;ratioP2
20966;SDS011;10642;50.682;18.510;2024-01-30T00:01:59;6.03;;;3.30;;
20966;SDS011;10642;50.682;18.510;2024-01-30T00:04:26;12.27;;;4.90;;
20966;SDS011;10642;50.682;18.510;2024-01-30T00:06:53;10.37;;;4.37;;
20966;SDS011;10642;50.682;18.510;2024-01-30T00:09:20;11.47;;;3.90;;
20966;SDS011;10642;50.682;18.510;2024-01-30T00:11:47;9.87;;;4.57;;
20966;SDS011;10642;50.682;18.510;2024-01-30T00:14:14;8.77;;;3.87;;
20966;SDS011;10642;50.682;18.510;2024-01-30T00:16:41;10.23;;;4.80;;
20966;SDS011;10642;50.682;18.510;2024-01-30T00:19:08;10.27;;;4.80;;
20966;SDS011;10642;50.682;18.510;2024-01-30T00:21:35;9.73;;;4.60;;
20966;SDS011;10642;50.682;18.510;2024-01-30T00:24:02;10.27;;;4.03;;
20966;SDS011;10642;50.682;18.510;2024-01-30T00:26:29;10.30;;;4.37;;
20966;SDS011;10642;50.682;18.510;2024-01-30T00:28:55;9.97;;;3.63;;
20966;SDS011;10642;50.682;18.510;2024-01-30T00:31:22;11.70;;;4.40;;
20966;SDS011;10642;50.682;18.510;2024-01-30T00:33:50;7.30;;;4.53;;
20966;SDS011;10642;50.682;18.510;2024-01-30T00:36:17;10.10;;;4.20;;
20966;SDS011;10642;50.682;18.510;2024-01-30T00:38:43;7.03;;;4.10;;
20966;SDS011;10642;50.682;18.510;2024-01-30T00:41:10;10.93;;;4.97;;
20966;SDS011;10642;50.682;18.510;2024-01-30T00:43:37;9.60;;;3.57;;
20966;SDS011;10642;50.682;18.510;2024-01-30T00:46:04;12.10;;;4.30;;
20966;SDS011;10642;50.682;18.510;2024-01-30T00:48:31;9.63;;;3.97;;
20966;SDS011;10642;50.682;18.510;2024-01-30T00:50:58;10.33;;;4.60;;
20966;SDS011;10642;50.682;18.510;2024-01-30T00:53:25;11.43;;;4.73;;
20966;SDS011;10642;50.682;18.510;2024-01-30T00:55:52;11.17;;;4.90;;
20966;SDS011;10642;50.682;18.510;2024-01-30T00:58:19;8.83;;;4.23;;
20966;SDS011;10642;50.682;18.510;2024-01-30T01:00:46;9.90;;;4.90;;
20966;SDS011;10642;50.682;18.510;2024-01-30T01:03:13;8.13;;;4.93;;
20966;SDS011;10642;50.682;18.510;2024-01-30T01:05:41;8.53;;;4.37;;
20966;SDS011;10642;50.682;18.510;2024-01-30T01:08:07;11.37;;;4.87;;
20966;SDS011;10642;50.682;18.510;2024-01-30T01:10:35;9.03;;;4.57;;
20966;SDS011;10642;50.682;18.510;2024-01-30T01:13:02;8.30;;;4.47;;
20966;SDS011;10642;50.682;18.510;2024-01-30T01:15:30;11.00;;;4.23;;
20966;SDS011;10642;50.682;18.510;2024-01-30T01:17:57;10.90;;;4.87;;
20966;SDS011;10642;50.682;18.510;2024-01-30T01:20:24;12.83;;;5.80;;
20966;SDS011;10642;50.682;18.510;2024-01-30T01:22:51;10.33;;;5.70;;
20966;SDS011;10642;50.682;18.510;2024-01-30T01:25:19;13.60;;;6.00;;
20966;SDS011;10642;50.682;18.510;2024-01-30T01:27:46;10.37;;;5.57;;
20966;SDS011;10642;50.682;18.510;2024-01-30T01:30:18;8.57;;;3.83;;
20966;SDS011;10642;50.682;18.510;2024-01-30T01:32:48;12.80;;;5.63;;
20966;SDS011;10642;50.682;18.510;2024-01-30T01:35:23;8.90;;;4.90;;
20966;SDS011;10642;50.682;18.510;2024-01-30T01:37:54;12.43;;;6.10;;
20966;SDS011;10642;50.682;18.510;2024-01-30T01:40:25;11.90;;;6.83;;
20966;SDS011;10642;50.682;18.510;2024-01-30T01:42:53;12.10;;;5.23;;
20966;SDS011;10642;50.682;18.510;2024-01-30T01:45:20;11.73;;;6.07;;
20966;SDS011;10642;50.682;18.510;2024-01-30T01:47:48;14.70;;;6.30;;
20966;SDS011;10642;50.682;18.510;2024-01-30T01:50:17;11.03;;;5.80;;
20966;SDS011;10642;50.682;18.510;2024-01-30T01:52:48;11.47;;;6.53;;
20966;SDS011;10642;50.682;18.510;2024-01-30T01:55:16;14.10;;;6.07;;
20966;SDS011;10642;50.682;18.510;2024-01-30T01:57:44;13.53;;;6.60;;
20966;SDS011;10642;50.682;18.510;2024-01-30T02:00:11;14.10;;;6.97;;
20966;SDS011;10642;50.682;18.510;2024-01-30T02:02:38;14.43;;;6.33;;
20966;SDS011;10642;50.682;18.510;2024-01-30T02:05:05;12.60;;;6.53;;
20966;SDS011;10642;50.682;18.510;2024-01-30T02:07:33;14.83;;;6.30;;
20966;SDS011;10642;50.682;18.510;2024-01-30T02:10:00;13.27;;;6.87;;
20966;SDS011;10642;50.682;18.510;2024-01-30T02:12:27;13.17;;;7.67;;
20966;SDS011;10642;50.682;18.510;2024-01-30T02:14:54;14.23;;;7.83;;
20966;SDS011;10642;50.682;18.510;2024-01-30T02:17:21;14.67;;;7.43;;
20966;SDS011;10642;50.682;18.510;2024-01-30T02:19:50;15.63;;;7.13;;
20966;SDS011;10642;50.682;18.510;2024-01-30T02:22:17;14.70;;;7.50;;
20966;SDS011;10642;50.682;18.510;2024-01-30T02:24:44;12.20;;;5.83;;
20966;SDS011;10642;50.682;18.510;2024-01-30T02:27:11;14.40;;;7.60;;
20966;SDS011;10642;50.682;18.510;2024-01-30T02:29:38;13.30;;;7.13;;
20966;SDS011;10642;50.682;18.510;2024-01-30T02:32:05;11.47;;;7.07;;
20966;SDS011;10642;50.682;18.510;2024-01-30T02:34:33;19.50;;;7.83;;
20966;SDS011;10642;50.682;18.510;2024-01-30T02:37:00;14.20;;;8.00;;
20966;SDS011;10642;50.682;18.510;2024-01-30T02:39:27;17.67;;;8.03;;
20966;SDS011;10642;50.682;18.510;2024-01-30T02:41:54;22.87;;;7.63;;
20966;SDS011;10642;50.682;18.510;2024-01-30T02:44:21;14.27;;;7.63;;
20966;SDS011;10642;50.682;18.510;2024-01-30T02:46:48;11.27;;;6.63;;
20966;SDS011;10642;50.682;18.510;2024-01-30T02:49:15;14.53;;;7.57;;
20966;SDS011;10642;50.682;18.510;2024-01-30T02:51:42;15.50;;;6.20;;
20966;SDS011;10642;50.682;18.510;2024-01-30T02:54:09;18.47;;;9.00;;
20966;SDS011;10642;50.682;18.510;2024-01-30T02:56:36;18.70;;;8.00;;
20966;SDS011;10642;50.682;18.510;2024-01-30T02:59:03;14.20;;;7.50;;
20966;SDS011;10642;50.682;18.510;2024-01-30T03:01:30;13.60;;;6.63;;
20966;SDS011;10642;50.682;18.510;2024-01-30T03:03:58;16.57;;;9.53;;
20966;SDS011;10642;50.682;18.510;2024-01-30T03:06:25;16.93;;;7.83;;
20966;SDS011;10642;50.682;18.510;2024-01-30T03:08:52;17.03;;;7.70;;
20966;SDS011;10642;50.682;18.510;2024-01-30T03:11:19;13.07;;;6.70;;
20966;SDS011;10642;50.682;18.510;2024-01-30T03:13:46;12.93;;;7.20;;
20966;SDS011;10642;50.682;18.510;2024-01-30T03:16:13;15.43;;;6.57;;
20966;SDS011;10642;50.682;18.510;2024-01-30T03:18:40;16.47;;;8.23;;
20966;SDS011;10642;50.682;18.510;2024-01-30T03:21:07;15.50;;;7.43;;
20966;SDS011;10642;50.682;18.510;2024-01-30T03:23:33;15.63;;;8.07;;
20966;SDS011;10642;50.682;18.510;2024-01-30T03:26:00;14.83;;;6.77;;
20966;SDS011;10642;50.682;18.510;2024-01-30T03:28:27;15.03;;;8.83;;
20966;SDS011;10642;50.682;18.510;2024-01-30T03:30:54;23.00;;;9.80;;
20966;SDS011;10642;50.682;18.510;2024-01-30T03:33:21;17.17;;;8.13;;
20966;SDS011;10642;50.682;18.510;2024-01-30T03:35:48;23.47;;;8.63;;
20966;SDS011;10642;50.682;18.510;2024-01-30T03:38:15;13.67;;;8.63;;
20966;SDS011;10642;50.682;18.510;2024-01-30T03:40:42;15.70;;;6.67;;
20966;SDS011;10642;50.682;18.510;2024-01-30T03:43:09;11.77;;;6.43;;
20966;SDS011;10642;50.682;18.510;2024-01-30T03:45:36;14.73;;;6.53;;
20966;SDS011;10642;50.682;18.510;2024-01-30T03:48:03;11.83;;;6.80;;
20966;SDS011;10642;50.682;18.510;2024-01-30T03:50:30;15.00;;;7.83;;
20966;SDS011;10642;50.682;18.510;2024-01-30T03:52:57;14.63;;;7.80;;
20966;SDS011;10642;50.682;18.510;2024-01-30T03:55:24;15.10;;;6.50;;
20966;SDS011;10642;50.682;18.510;2024-01-30T03:57:51;17.53;;;8.00;;
20966;SDS011;10642;50.682;18.510;2024-01-30T04:00:18;16.03;;;7.60;;
20966;SDS011;10642;50.682;18.510;2024-01-30T04:02:44;13.47;;;6.83;;
20966;SDS011;10642;50.682;18.510;2024-01-30T04:05:11;16.20;;;7.20;;
20966;SDS011;10642;50.682;18.510;2024-01-30T04:07:39;11.70;;;5.87;;
20966;SDS011;10642;50.682;18.510;2024-01-30T04:10:05;12.60;;;7.07;;
20966;SDS011;10642;50.682;18.510;2024-01-30T04:12:33;14.47;;;6.90;;
20966;SDS011;10642;50.682;18.510;2024-01-30T04:15:00;14.27;;;6.97;;
20966;SDS011;10642;50.682;18.510;2024-01-30T04:17:26;17.37;;;8.30;;
20966;SDS011;10642;50.682;18.510;2024-01-30T04:19:55;14.07;;;7.77;;
20966;SDS011;10642;50.682;18.510;2024-01-30T04:22:22;17.80;;;7.80;;
20966;SDS011;10642;50.682;18.510;2024-01-30T04:24:49;18.37;;;7.13;;
20966;SDS011;10642;50.682;18.510;2024-01-30T04:27:16;18.40;;;7.67;;
20966;SDS011;10642;50.682;18.510;2024-01-30T04:29:43;18.63;;;8.53;;
20966;SDS011;10642;50.682;18.510;2024-01-30T04:32:10;15.40;;;7.00;;
20966;SDS011;10642;50.682;18.510;2024-01-30T04:34:37;13.43;;;6.37;;
20966;SDS011;10642;50.682;18.510;2024-01-30T04:37:05;14.00;;;7.03;;
20966;SDS011;10642;50.682;18.510;2024-01-30T04:39:35;14.67;;;7.80;;
20966;SDS011;10642;50.682;18.510;2024-01-30T04:42:01;12.03;;;5.27;;
20966;SDS011;10642;50.682;18.510;2024-01-30T04:44:32;14.73;;;6.17;;
20966;SDS011;10642;50.682;18.510;2024-01-30T04:46:59;11.83;;;6.70;;
20966;SDS011;10642;50.682;18.510;2024-01-30T04:49:28;13.17;;;6.27;;
20966;SDS011;10642;50.682;18.510;2024-01-30T04:51:56;14.17;;;6.27;;
20966;SDS011;10642;50.682;18.510;2024-01-30T04:54:23;15.77;;;6.93;;
20966;SDS011;10642;50.682;18.510;2024-01-30T04:56:50;14.17;;;6.07;;
20966;SDS011;10642;50.682;18.510;2024-01-30T04:59:17;15.40;;;7.50;;
20966;SDS011;10642;50.682;18.510;2024-01-30T05:01:44;15.53;;;7.53;;
20966;SDS011;10642;50.682;18.510;2024-01-30T05:04:11;15.90;;;8.40;;
20966;SDS011;10642;50.682;18.510;2024-01-30T05:06:42;13.23;;;6.93;;
20966;SDS011;10642;50.682;18.510;2024-01-30T05:09:09;15.20;;;7.57;;
20966;SDS011;10642;50.682;18.510;2024-01-30T05:11:39;13.90;;;7.30;;
20966;SDS011;10642;50.682;18.510;2024-01-30T05:14:07;15.47;;;7.03;;
20966;SDS011;10642;50.682;18.510;2024-01-30T05:16:35;12.47;;;7.07;;
20966;SDS011;10642;50.682;18.510;2024-01-30T05:19:02;15.70;;;8.07;;
20966;SDS011;10642;50.682;18.510;2024-01-30T05:21:29;12.47;;;6.73;;
20966;SDS011;10642;50.682;18.510;2024-01-30T05:23:56;16.53;;;7.87;;
20966;SDS011;10642;50.682;18.510;2024-01-30T05:26:23;14.20;;;6.77;;
20966;SDS011;10642;50.682;18.510;2024-01-30T05:28:49;15.60;;;7.37;;
20966;SDS011;10642;50.682;18.510;2024-01-30T05:31:16;15.10;;;6.67;;
20966;SDS011;10642;50.682;18.510;2024-01-30T05:33:43;15.17;;;7.20;;
20966;SDS011;10642;50.682;18.510;2024-01-30T05:36:14;17.53;;;8.37;;
20966;SDS011;10642;50.682;18.510;2024-01-30T05:38:40;15.03;;;7.97;;
20966;SDS011;10642;50.682;18.510;2024-01-30T05:41:08;17.70;;;7.73;;
20966;SDS011;10642;50.682;18.510;2024-01-30T05:43:35;19.83;;;9.70;;
20966;SDS011;10642;50.682;18.510;2024-01-30T05:46:01;16.20;;;8.30;;
20966;SDS011;10642;50.682;18.510;2024-01-30T05:48:28;16.63;;;7.53;;
20966;SDS011;10642;50.682;18.510;2024-01-30T05:50:55;17.07;;;8.20;;
20966;SDS011;10642;50.682;18.510;2024-01-30T05:53:23;15.47;;;8.43;;
20966;SDS011;10642;50.682;18.510;2024-01-30T05:55:50;18.83;;;8.27;;
20966;SDS011;10642;50.682;18.510;2024-01-30T05:58:17;16.67;;;8.13;;
20966;SDS011;10642;50.682;18.510;2024-01-30T06:00:44;16.30;;;7.53;;
20966;SDS011;10642;50.682;18.510;2024-01-30T06:03:11;15.07;;;8.20;;
20966;SDS011;10642;50.682;18.510;2024-01-30T06:05:37;17.37;;;7.97;;
20966;SDS011;10642;50.682;18.510;2024-01-30T06:08:05;18.30;;;7.90;;
20966;SDS011;10642;50.682;18.510;2024-01-30T06:10:32;20.93;;;9.70;;
20966;SDS011;10642;50.682;18.510;2024-01-30T06:12:59;16.10;;;9.47;;
20966;SDS011;10642;50.682;18.510;2024-01-30T06:15:26;15.03;;;7.07;;
20966;SDS011;10642;50.682;18.510;2024-01-30T06:17:53;15.97;;;8.67;;
20966;SDS011;10642;50.682;18.510;2024-01-30T06:20:20;16.97;;;8.57;;
20966;SDS011;10642;50.682;18.510;2024-01-30T06:22:47;18.20;;;9.93;;
20966;SDS011;10642;50.682;18.510;2024-01-30T06:25:14;17.07;;;9.13;;
20966;SDS011;10642;50.682;18.510;2024-01-30T06:27:41;19.63;;;9.47;;
20966;SDS011;10642;50.682;18.510;2024-01-30T06:30:08;21.73;;;9.53;;
20966;SDS011;10642;50.682;18.510;2024-01-30T06:32:35;19.47;;;9.60;;
20966;SDS011;10642;50.682;18.510;2024-01-30T06:35:02;17.30;;;9.90;;
20966;SDS011;10642;50.682;18.510;2024-01-30T06:37:29;18.73;;;8.93;;
20966;SDS011;10642;50.682;18.510;2024-01-30T06:39:56;17.73;;;9.57;;
20966;SDS011;10642;50.682;18.510;2024-01-30T06:42:23;24.43;;;10.60;;
20966;SDS011;10642;50.682;18.510;2024-01-30T06:44:50;18.17;;;9.93;;
20966;SDS011;10642;50.682;18.510;2024-01-30T06:47:17;15.63;;;7.53;;
20966;SDS011;10642;50.682;18.510;2024-01-30T06:49:44;19.40;;;9.80;;
20966;SDS011;10642;50.682;18.510;2024-01-30T06:52:11;15.80;;;8.80;;
20966;SDS011;10642;50.682;18.510;2024-01-30T06:54:38;15.60;;;8.73;;
20966;SDS011;10642;50.682;18.510;2024-01-30T06:57:06;19.33;;;9.83;;
20966;SDS011;10642;50.682;18.510;2024-01-30T06:59:38;13.60;;;7.03;;
20966;SDS011;10642;50.682;18.510;2024-01-30T07:02:10;16.53;;;7.47;;
20966;SDS011;10642;50.682;18.510;2024-01-30T07:04:37;20.80;;;8.07;;
20966;SDS011;10642;50.682;18.510;2024-01-30T07:07:11;13.67;;;7.07;;
20966;SDS011;10642;50.682;18.510;2024-01-30T07:09:40;14.43;;;6.80;;
20966;SDS011;10642;50.682;18.510;2024-01-30T07:12:07;15.63;;;7.13;;
20966;SDS011;10642;50.682;18.510;2024-01-30T07:14:34;20.03;;;7.77;;
20966;SDS011;10642;50.682;18.510;2024-01-30T07:17:01;12.10;;;5.40;;
20966;SDS011;10642;50.682;18.510;2024-01-30T07:19:28;14.63;;;6.70;;
20966;SDS011;10642;50.682;18.510;2024-01-30T07:21:56;13.07;;;5.13;;
20966;SDS011;10642;50.682;18.510;2024-01-30T07:24:23;21.57;;;8.43;;
20966;SDS011;10642;50.682;18.510;2024-01-30T07:26:49;14.20;;;8.00;;
20966;SDS011;10642;50.682;18.510;2024-01-30T07:29:16;15.33;;;8.67;;
20966;SDS011;10642;50.682;18.510;2024-01-30T07:31:43;20.77;;;8.20;;
20966;SDS011;10642;50.682;18.510;2024-01-30T07:34:11;28.07;;;9.10;;
20966;SDS011;10642;50.682;18.510;2024-01-30T07:36:39;18.87;;;8.63;;
20966;SDS011;10642;50.682;18.510;2024-01-30T07:39:05;18.03;;;8.13;;
20966;SDS011;10642;50.682;18.510;2024-01-30T07:41:33;18.03;;;9.33;;
20966;SDS011;10642;50.682;18.510;2024-01-30T07:44:00;16.23;;;8.80;;
20966;SDS011;10642;50.682;18.510;2024-01-30T07:46:27;16.53;;;7.63;;
20966;SDS011;10642;50.682;18.510;2024-01-30T07:48:54;20.50;;;9.80;;
20966;SDS011;10642;50.682;18.510;2024-01-30T07:51:23;8.83;;;4.00;;
20966;SDS011;10642;50.682;18.510;2024-01-30T07:53:50;12.57;;;6.10;;
20966;SDS011;10642;50.682;18.510;2024-01-30T07:56:17;18.47;;;8.30;;
20966;SDS011;10642;50.682;18.510;2024-01-30T07:58:44;8.47;;;4.03;;
20966;SDS011;10642;50.682;18.510;2024-01-30T08:01:11;8.93;;;3.67;;
20966;SDS011;10642;50.682;18.510;2024-01-30T08:03:39;14.67;;;6.97;;
20966;SDS011;10642;50.682;18.510;2024-01-30T08:06:08;10.67;;;4.93;;
20966;SDS011;10642;50.682;18.510;2024-01-30T08:08:36;13.77;;;6.70;;
20966;SDS011;10642;50.682;18.510;2024-01-30T08:11:04;15.30;;;7.50;;
20966;SDS011;10642;50.682;18.510;2024-01-30T08:13:31;12.30;;;6.97;;
20966;SDS011;10642;50.682;18.510;2024-01-30T08:15:58;14.73;;;7.43;;
20966;SDS011;10642;50.682;18.510;2024-01-30T08:18:25;12.13;;;5.87;;
20966;SDS011;10642;50.682;18.510;2024-01-30T08:20:53;15.37;;;7.77;;
20966;SDS011;10642;50.682;18.510;2024-01-30T08:23:20;16.53;;;8.10;;
20966;SDS011;10642;50.682;18.510;2024-01-30T08:25:47;10.33;;;5.20;;
20966;SDS011;10642;50.682;18.510;2024-01-30T08:28:13;19.50;;;7.03;;
20966;SDS011;10642;50.682;18.510;2024-01-30T08:30:43;11.50;;;4.33;;
20966;SDS011;10642;50.682;18.510;2024-01-30T08:33:10;16.03;;;7.73;;
20966;SDS011;10642;50.682;18.510;2024-01-30T08:35:37;18.30;;;8.10;;
20966;SDS011;10642;50.682;18.510;2024-01-30T08:38:04;13.23;;;5.70;;
20966;SDS011;10642;50.682;18.510;2024-01-30T08:40:31;16.37;;;7.80;;
20966;SDS011;10642;50.682;18.510;2024-01-30T08:42:58;16.87;;;8.00;;
20966;SDS011;10642;50.682;18.510;2024-01-30T08:45:25;17.10;;;8.37;;
20966;SDS011;10642;50.682;18.510;2024-01-30T08:47:52;17.53;;;7.73;;
20966;SDS011;10642;50.682;18.510;2024-01-30T08:50:19;7.00;;;3.93;;
20966;SDS011;10642;50.682;18.510;2024-01-30T08:52:46;16.40;;;7.83;;
20966;SDS011;10642;50.682;18.510;2024-01-30T08:55:15;12.60;;;7.63;;
20966;SDS011;10642;50.682;18.510;2024-01-30T08:57:42;11.97;;;3.67;;
20966;SDS011;10642;50.682;18.510;2024-01-30T09:00:10;17.60;;;7.60;;
20966;SDS011;10642;50.682;18.510;2024-01-30T09:02:37;14.40;;;5.13;;
20966;SDS011;10642;50.682;18.510;2024-01-30T09:05:05;10.33;;;4.47;;
20966;SDS011;10642;50.682;18.510;2024-01-30T09:07:32;14.77;;;7.10;;
20966;SDS011;10642;50.682;18.510;2024-01-30T09:09:59;15.70;;;6.87;;
20966;SDS011;10642;50.682;18.510;2024-01-30T09:12:26;12.80;;;6.53;;
20966;SDS011;10642;50.682;18.510;2024-01-30T09:14:53;14.40;;;7.20;;
20966;SDS011;10642;50.682;18.510;2024-01-30T09:17:21;11.43;;;5.50;;
20966;SDS011;10642;50.682;18.510;2024-01-30T09:19:47;14.60;;;7.17;;
20966;SDS011;10642;50.682;18.510;2024-01-30T09:22:14;12.03;;;6.60;;
20966;SDS011;10642;50.682;18.510;2024-01-30T09:24:41;9.97;;;4.63;;
20966;SDS011;10642;50.682;18.510;2024-01-30T09:27:08;16.57;;;7.07;;
20966;SDS011;10642;50.682;18.510;2024-01-30T09:29:35;12.83;;;6.57;;
20966;SDS011;10642;50.682;18.510;2024-01-30T09:32:03;9.77;;;4.53;;
20966;SDS011;10642;50.682;18.510;2024-01-30T09:34:30;15.60;;;7.20;;
20966;SDS011;10642;50.682;18.510;2024-01-30T09:36:58;11.00;;;5.40;;
20966;SDS011;10642;50.682;18.510;2024-01-30T09:39:26;13.17;;;7.03;;
20966;SDS011;10642;50.682;18.510;2024-01-30T09:42:09;16.13;;;6.57;;
20966;SDS011;10642;50.682;18.510;2024-01-30T09:44:38;16.43;;;6.53;;
20966;SDS011;10642;50.682;18.510;2024-01-30T09:47:09;13.47;;;5.23;;
20966;SDS011;10642;50.682;18.510;2024-01-30T09:49:36;9.10;;;5.40;;
20966;SDS011;10642;50.682;18.510;2024-01-30T09:52:07;13.87;;;6.50;;
20966;SDS011;10642;50.682;18.510;2024-01-30T09:54:34;11.00;;;4.83;;
20966;SDS011;10642;50.682;18.510;2024-01-30T09:57:02;14.40;;;7.40;;
20966;SDS011;10642;50.682;18.510;2024-01-30T09:59:29;14.23;;;7.33;;
20966;SDS011;10642;50.682;18.510;2024-01-30T10:01:57;11.27;;;5.27;;
20966;SDS011;10642;50.682;18.510;2024-01-30T10:04:24;20.17;;;7.97;;
20966;SDS011;10642;50.682;18.510;2024-01-30T10:06:51;13.83;;;6.13;;
20966;SDS011;10642;50.682;18.510;2024-01-30T10:09:18;11.60;;;5.53;;
20966;SDS011;10642;50.682;18.510;2024-01-30T10:11:45;17.73;;;6.13;;
20966;SDS011;10642;50.682;18.510;2024-01-30T10:14:13;11.27;;;4.77;;
20966;SDS011;10642;50.682;18.510;2024-01-30T10:16:40;13.33;;;5.90;;
20966;SDS011;10642;50.682;18.510;2024-01-30T10:19:06;11.77;;;5.93;;
20966;SDS011;10642;50.682;18.510;2024-01-30T10:21:34;11.43;;;6.37;;
20966;SDS011;10642;50.682;18.510;2024-01-30T10:24:01;16.10;;;6.73;;
20966;SDS011;10642;50.682;18.510;2024-01-30T10:26:28;13.63;;;4.47;;
20966;SDS011;10642;50.682;18.510;2024-01-30T10:28:56;15.30;;;6.33;;
20966;SDS011;10642;50.682;18.510;2024-01-30T10:31:22;12.77;;;6.20;;
20966;SDS011;10642;50.682;18.510;2024-01-30T10:33:50;10.70;;;4.53;;
20966;SDS011;10642;50.682;18.510;2024-01-30T10:36:25;10.17;;;5.83;;
20966;SDS011;10642;50.682;18.510;2024-01-30T10:38:55;11.70;;;6.57;;
20966;SDS011;10642;50.682;18.510;2024-01-30T10:41:27;13.07;;;6.30;;
20966;SDS011;10642;50.682;18.510;2024-01-30T10:43:58;14.23;;;6.70;;
20966;SDS011;10642;50.682;18.510;2024-01-30T10:46:29;7.97;;;3.57;;
20966;SDS011;10642;50.682;18.510;2024-01-30T10:48:57;10.40;;;4.67;;
20966;SDS011;10642;50.682;18.510;2024-01-30T10:51:28;12.03;;;5.73;;
20966;SDS011;10642;50.682;18.510;2024-01-30T10:53:56;11.90;;;6.07;;
20966;SDS011;10642;50.682;18.510;2024-01-30T10:56:24;9.87;;;4.87;;
20966;SDS011;10642;50.682;18.510;2024-01-30T10:58:52;11.40;;;4.90;;
20966;SDS011;10642;50.682;18.510;2024-01-30T11:01:20;8.17;;;4.77;;
20966;SDS011;10642;50.682;18.510;2024-01-30T11:03:52;10.80;;;5.43;;
20966;SDS011;10642;50.682;18.510;2024-01-30T11:06:24;10.17;;;3.87;;
20966;SDS011;10642;50.682;18.510;2024-01-30T11:09:04;10.20;;;5.93;;
20966;SDS011;10642;50.682;18.510;2024-01-30T11:11:55;14.20;;;6.40;;
20966;SDS011;10642;50.682;18.510;2024-01-30T11:14:27;8.87;;;5.10;;
20966;SDS011;10642;50.682;18.510;2024-01-30T11:16:57;7.33;;;3.43;;
20966;SDS011;10642;50.682;18.510;2024-01-30T11:19:24;7.73;;;4.50;;
20966;SDS011;10642;50.682;18.510;2024-01-30T11:21:55;17.63;;;8.43;;
20966;SDS011;10642;50.682;18.510;2024-01-30T11:24:24;15.17;;;7.70;;
20966;SDS011;10642;50.682;18.510;2024-01-30T11:26:57;17.50;;;7.80;;
20966;SDS011;10642;50.682;18.510;2024-01-30T11:29:25;16.57;;;7.40;;
20966;SDS011;10642;50.682;18.510;2024-01-30T11:31:54;17.07;;;7.47;;
20966;SDS011;10642;50.682;18.510;2024-01-30T11:34:21;15.03;;;8.27;;
20966;SDS011;10642;50.682;18.510;2024-01-30T11:36:56;12.97;;;7.07;;
20966;SDS011;10642;50.682;18.510;2024-01-30T11:39:27;15.77;;;6.30;;
20966;SDS011;10642;50.682;18.510;2024-01-30T11:41:54;14.07;;;6.90;;
20966;SDS011;10642;50.682;18.510;2024-01-30T11:44:22;13.70;;;6.60;;
20966;SDS011;10642;50.682;18.510;2024-01-30T11:46:49;14.33;;;7.87;;
20966;SDS011;10642;50.682;18.510;2024-01-30T11:49:16;17.63;;;8.67;;
20966;SDS011;10642;50.682;18.510;2024-01-30T11:51:46;14.23;;;7.20;;
20966;SDS011;10642;50.682;18.510;2024-01-30T11:54:16;11.97;;;7.30;;
20966;SDS011;10642;50.682;18.510;2024-01-30T11:56:43;14.10;;;7.07;;
20966;SDS011;10642;50.682;18.510;2024-01-30T11:59:10;9.87;;;5.80;;
20966;SDS011;10642;50.682;18.510;2024-01-30T12:01:37;10.70;;;6.40;;
20966;SDS011;10642;50.682;18.510;2024-01-30T12:04:04;14.50;;;5.97;;
20966;SDS011;10642;50.682;18.510;2024-01-30T12:06:35;10.63;;;5.90;;
20966;SDS011;10642;50.682;18.510;2024-01-30T12:09:03;12.03;;;7.17;;
20966;SDS011;10642;50.682;18.510;2024-01-30T12:11:46;11.93;;;7.23;;
20966;SDS011;10642;50.682;18.510;2024-01-30T12:14:13;11.23;;;6.30;;
20966;SDS011;10642;50.682;18.510;2024-01-30T12:16:40;12.47;;;6.33;;
20966;SDS011;10642;50.682;18.510;2024-01-30T12:19:10;14.27;;;7.90;;
20966;SDS011;10642;50.682;18.510;2024-01-30T12:21:38;14.63;;;7.83;;
20966;SDS011;10642;50.682;18.510;2024-01-30T12:24:05;13.30;;;6.73;;
20966;SDS011;10642;50.682;18.510;2024-01-30T12:26:34;15.23;;;8.47;;
20966;SDS011;10642;50.682;18.510;2024-01-30T12:29:03;11.47;;;5.17;;
20966;SDS011;10642;50.682;18.510;2024-01-30T12:31:31;12.87;;;6.40;;
20966;SDS011;10642;50.682;18.510;2024-01-30T12:33:59;12.50;;;7.07;;
20966;SDS011;10642;50.682;18.510;2024-01-30T12:36:26;12.43;;;7.17;;
20966;SDS011;10642;50.682;18.510;2024-01-30T12:38:56;14.80;;;7.37;;
20966;SDS011;10642;50.682;18.510;2024-01-30T12:41:25;14.00;;;6.63;;
20966;SDS011;10642;50.682;18.510;2024-01-30T12:43:58;14.57;;;7.47;;
20966;SDS011;10642;50.682;18.510;2024-01-30T12:46:28;12.63;;;6.03;;
20966;SDS011;10642;50.682;18.510;2024-01-30T12:48:56;10.30;;;5.50;;
20966;SDS011;10642;50.682;18.510;2024-01-30T12:51:23;14.00;;;6.37;;
20966;SDS011;10642;50.682;18.510;2024-01-30T12:53:50;11.10;;;5.10;;
20966;SDS011;10642;50.682;18.510;2024-01-30T12:56:17;12.60;;;7.10;;
20966;SDS011;10642;50.682;18.510;2024-01-30T12:58:44;5.53;;;2.77;;
20966;SDS011;10642;50.682;18.510;2024-01-30T13:01:15;6.70;;;3.27;;
20966;SDS011;10642;50.682;18.510;2024-01-30T13:03:42;6.83;;;3.53;;
20966;SDS011;10642;50.682;18.510;2024-01-30T13:06:09;14.63;;;4.97;;
20966;SDS011;10642;50.682;18.510;2024-01-30T13:08:36;7.60;;;3.57;;
20966;SDS011;10642;50.682;18.510;2024-01-30T13:11:03;14.23;;;6.27;;
20966;SDS011;10642;50.682;18.510;2024-01-30T13:13:30;4.17;;;1.60;;
20966;SDS011;10642;50.682;18.510;2024-01-30T13:15:57;9.23;;;2.37;;
20966;SDS011;10642;50.682;18.510;2024-01-30T13:18:24;5.20;;;3.07;;
20966;SDS011;10642;50.682;18.510;2024-01-30T13:20:51;7.03;;;3.77;;
20966;SDS011;10642;50.682;18.510;2024-01-30T13:23:19;5.70;;;3.13;;
20966;SDS011;10642;50.682;18.510;2024-01-30T13:25:46;12.20;;;5.80;;
20966;SDS011;10642;50.682;18.510;2024-01-30T13:28:13;10.63;;;4.27;;
20966;SDS011;10642;50.682;18.510;2024-01-30T13:30:39;13.40;;;5.73;;
20966;SDS011;10642;50.682;18.510;2024-01-30T13:33:06;8.50;;;4.60;;
20966;SDS011;10642;50.682;18.510;2024-01-30T13:35:33;13.70;;;5.33;;
20966;SDS011;10642;50.682;18.510;2024-01-30T13:38:00;9.23;;;5.20;;
20966;SDS011;10642;50.682;18.510;2024-01-30T13:40:27;16.83;;;5.40;;
20966;SDS011;10642;50.682;18.510;2024-01-30T13:42:54;7.70;;;4.03;;
20966;SDS011;10642;50.682;18.510;2024-01-30T13:45:21;10.37;;;4.00;;
20966;SDS011;10642;50.682;18.510;2024-01-30T13:47:49;11.43;;;3.93;;
20966;SDS011;10642;50.682;18.510;2024-01-30T13:50:16;7.57;;;3.60;;
20966;SDS011;10642;50.682;18.510;2024-01-30T13:52:43;10.67;;;5.30;;
20966;SDS011;10642;50.682;18.510;2024-01-30T13:55:11;10.93;;;4.67;;
20966;SDS011;10642;50.682;18.510;2024-01-30T13:57:39;5.83;;;3.50;;
20966;SDS011;10642;50.682;18.510;2024-01-30T14:00:06;8.77;;;4.10;;
20966;SDS011;10642;50.682;18.510;2024-01-30T14:02:39;8.47;;;4.40;;
20966;SDS011;10642;50.682;18.510;2024-01-30T14:05:06;12.73;;;6.00;;
20966;SDS011;10642;50.682;18.510;2024-01-30T14:07:35;11.53;;;5.23;;
20966;SDS011;10642;50.682;18.510;2024-01-30T14:10:02;12.50;;;6.10;;
20966;SDS011;10642;50.682;18.510;2024-01-30T14:12:33;17.10;;;7.93;;
20966;SDS011;10642;50.682;18.510;2024-01-30T14:15:00;17.93;;;7.23;;
20966;SDS011;10642;50.682;18.510;2024-01-30T14:17:32;13.13;;;6.77;;
20966;SDS011;10642;50.682;18.510;2024-01-30T14:19:59;12.27;;;5.67;;
20966;SDS011;10642;50.682;18.510;2024-01-30T14:22:26;16.20;;;6.07;;
20966;SDS011;10642;50.682;18.510;2024-01-30T14:24:53;8.90;;;4.07;;
20966;SDS011;10642;50.682;18.510;2024-01-30T14:27:20;5.70;;;2.70;;